KWRI/WRI METAR and TAF weather

Enter ICAO airport designator
Station Type Date Time Source
KWRI METAR 2020/07/05 02:56 UTC NOAA

KWRI 050256Z AUTO 16005KT 10SM CLR 22/20 A2994 RMK AO2 SLP137 T02200203 51011 TSNO $


Station Type Date Time Source
KWRI Decoded METAR 2020/07/05 02:56 UTC NOAA

Mcguire Air Force Base, NJ, United States (KWRI) 40-01N 074-36W
Jul 04, 2020 - 10:56 PM EDT / 2020.07.05 0256 UTC
Wind: from the SSE (160 degrees) at 6 MPH (5 KT):0
Visibility: 10 mile(s):0
Sky conditions: clear
Temperature: 71.6 F (22.0 C)
Dew Point: 68.5 F (20.3 C)
Relative Humidity: 90%
Pressure (altimeter): 29.94 in. Hg (1013 hPa)
Pressure tendency: 0.03 inches (1.1 hPa) higher than three hours ago
ob: KWRI 050256Z AUTO 16005KT 10SM CLR 22/20 A2994 RMK AO2 SLP137 T02200203 51011 TSNO
cycle: 3

Station Type Date Time Source
KWRI TAF 2020/07/05 02:03 UTC NOAA

TAF KWRI 050200Z 0502/0608 10006KT 9999 FEW050 QNH2994INS
BECMG 0502/0503 VRB05KT 9999 FEW050 SCT120 QNH2995INS
TEMPO 0504/0510 6000 BR BKN120
BECMG 0509/0510 27004KT 8000 BR FEW120 QNH2997INS
BECMG 0512/0513 26006KT 9999 NSW FEW040 QNH2996INS
BECMG 0516/0517 24009KT 9999 BKN040 QNH2992INS
BECMG 0604/0605 22004KT 9999 SKC QNH2999INS TX32/0520Z TN20/0510Z

Example: see airport list